Time;durP1;ratioP1;P1;durP2;ratioP2;P2;SDS_P1;SDS_P2;PMS_P1;PMS_P2;Temp;Humidity;BMP_temperature;BMP_pressure;BME280_temperature;BME280_humidity;BME280_pressure;Samples;Min_cycle;Max_cycle;Signal;HPM_P1;HPM_P2
2023/07/17 00:00:26;;;;;;;10.82;3.85;;;16.10;99.90;;;;;;5125132;27;20493;-66
2023/07/17 00:02:51;;;;;;;13.95;3.90;;;16.10;99.90;;;;;;5106187;27;20051;-66
2023/07/17 00:05:17;;;;;;;15.15;4.22;;;16.20;99.90;;;;;;5105089;28;20102;-65
2023/07/17 00:07:43;;;;;;;15.88;4.28;;;16.20;99.90;;;;;;5124561;27;20035;-66
2023/07/17 00:10:10;;;;;;;11.27;3.60;;;16.20;99.90;;;;;;5104515;28;20058;-65
2023/07/17 00:12:36;;;;;;;15.43;4.05;;;16.20;99.90;;;;;;5085088;28;20039;-64
2023/07/17 00:15:05;;;;;;;12.60;3.47;;;16.20;99.90;;;;;;5105803;28;20049;-65
2023/07/17 00:17:32;;;;;;;11.77;3.80;;;16.30;99.90;;;;;;5106038;28;20046;-65
2023/07/17 00:19:59;;;;;;;10.25;3.75;;;16.30;99.90;;;;;;5105962;28;20425;-66
2023/07/17 00:22:25;;;;;;;12.80;4.03;;;16.30;99.90;;;;;;5089000;28;20075;-66
2023/07/17 00:24:52;;;;;;;9.80;3.88;;;16.20;99.90;;;;;;5125373;28;20067;-66
2023/07/17 00:27:17;;;;;;;15.65;4.13;;;16.30;99.90;;;;;;5122337;28;20042;-65
2023/07/17 00:29:44;;;;;;;10.65;3.95;;;16.30;99.90;;;;;;5124262;28;20044;-66
2023/07/17 00:32:14;;;;;;;16.85;5.22;;;16.20;99.90;;;;;;5105264;28;20068;-67
2023/07/17 00:34:40;;;;;;;14.23;4.20;;;16.30;99.90;;;;;;5105953;28;20501;-65
2023/07/17 00:37:06;;;;;;;10.88;4.18;;;16.30;99.90;;;;;;5106038;28;20550;-66
2023/07/17 00:39:35;;;;;;;15.23;3.80;;;16.30;99.90;;;;;;5123697;28;20486;-66
2023/07/17 00:42:01;;;;;;;15.65;3.88;;;16.30;99.90;;;;;;5104243;28;20701;-65
2023/07/17 00:44:27;;;;;;;11.52;4.00;;;16.30;99.90;;;;;;5124069;28;20409;-65
2023/07/17 00:46:54;;;;;;;13.52;4.22;;;16.30;99.90;;;;;;5125630;27;20717;-66
2023/07/17 00:49:22;;;;;;;11.75;3.92;;;16.30;99.90;;;;;;5108909;27;20489;-63
2023/07/17 00:51:48;;;;;;;16.52;5.03;;;16.30;99.90;;;;;;5110497;27;20435;-67
2023/07/17 00:54:14;;;;;;;15.90;4.15;;;16.20;99.90;;;;;;5092557;27;20023;-68
2023/07/17 00:56:42;;;;;;;17.33;4.35;;;16.20;99.90;;;;;;5107754;27;20038;-67
2023/07/17 00:59:08;;;;;;;14.40;4.25;;;16.20;99.90;;;;;;5092774;27;20051;-72
2023/07/17 01:01:34;;;;;;;16.52;4.28;;;16.10;99.90;;;;;;5110739;27;20527;-67
2023/07/17 01:04:04;;;;;;;15.95;4.25;;;16.10;99.90;;;;;;5109554;27;20039;-68
2023/07/17 01:06:30;;;;;;;11.88;4.20;;;16.00;99.90;;;;;;5128638;27;20039;-70
2023/07/17 01:08:58;;;;;;;11.52;4.20;;;16.00;99.90;;;;;;5091849;27;20154;-69
2023/07/17 01:11:23;;;;;;;13.55;3.85;;;15.90;99.90;;;;;;5108780;27;20100;-70
2023/07/17 01:13:50;;;;;;;17.45;4.40;;;15.90;99.90;;;;;;5109104;27;20035;-69
2023/07/17 01:16:16;;;;;;;19.30;4.53;;;15.80;99.90;;;;;;5109806;27;20876;-70
2023/07/17 01:18:42;;;;;;;15.68;4.40;;;15.80;99.90;;;;;;5127054;27;20075;-68
2023/07/17 01:21:12;;;;;;;16.20;4.63;;;15.80;99.90;;;;;;5109974;27;20138;-70
2023/07/17 01:23:38;;;;;;;12.38;4.43;;;15.70;99.90;;;;;;5109253;27;20145;-67
2023/07/17 01:26:19;;;;;;;16.10;5.00;;;15.70;99.90;;;;;;5091238;27;20451;-67
2023/07/17 01:28:46;;;;;;;15.88;4.60;;;15.70;99.90;;;;;;5119952;27;20039;-66
2023/07/17 01:31:12;;;;;;;17.30;4.60;;;15.70;99.90;;;;;;5109268;27;20043;-67
2023/07/17 01:33:38;;;;;;;20.30;5.07;;;15.70;99.90;;;;;;5109590;27;20777;-68
2023/07/17 01:36:05;;;;;;;20.42;4.65;;;15.60;99.90;;;;;;5108583;27;20050;-74
2023/07/17 01:38:31;;;;;;;15.93;4.80;;;15.60;99.90;;;;;;5127638;27;20035;-69
2023/07/17 01:40:57;;;;;;;18.45;5.18;;;15.60;99.90;;;;;;5107916;27;20493;-72
2023/07/17 01:43:23;;;;;;;22.70;5.28;;;15.60;99.90;;;;;;5126422;27;20042;-67
2023/07/17 01:45:49;;;;;;;16.65;4.70;;;15.60;99.90;;;;;;5127292;27;20074;-67
2023/07/17 01:48:17;;;;;;;18.10;4.93;;;15.50;99.90;;;;;;5127820;27;20118;-67
2023/07/17 01:50:45;;;;;;;13.30;4.93;;;15.50;99.90;;;;;;5125968;27;20117;-66
2023/07/17 01:53:11;;;;;;;15.20;4.57;;;15.50;99.90;;;;;;5115779;27;20135;-65
2023/07/17 01:55:37;;;;;;;15.43;5.03;;;15.50;99.90;;;;;;5107482;27;20103;-67
2023/07/17 01:58:03;;;;;;;17.17;4.55;;;15.50;99.90;;;;;;5126082;27;20078;-67
2023/07/17 02:00:29;;;;;;;16.13;4.55;;;15.50;99.90;;;;;;5127949;27;20316;-66
2023/07/17 02:02:54;;;;;;;14.43;4.72;;;15.50;99.90;;;;;;5126805;27;20565;-66
2023/07/17 02:05:20;;;;;;;17.15;4.68;;;15.40;99.90;;;;;;5127102;27;20347;-65
2023/07/17 02:07:46;;;;;;;10.80;3.13;;;15.40;99.90;;;;;;5109190;27;20043;-69
2023/07/17 02:10:12;;;;;;;13.52;3.75;;;15.30;99.90;;;;;;5108360;27;20027;-64
2023/07/17 02:12:38;;;;;;;7.82;2.80;;;15.30;99.90;;;;;;5127664;27;20521;-68
2023/07/17 02:15:06;;;;;;;9.55;3.08;;;15.20;99.90;;;;;;5108867;27;20031;-66
2023/07/17 02:17:32;;;;;;;12.82;3.20;;;15.20;99.90;;;;;;5126907;27;20042;-67
2023/07/17 02:19:58;;;;;;;11.55;3.10;;;15.20;99.90;;;;;;5107652;27;20043;-66
2023/07/17 02:22:23;;;;;;;11.07;2.97;;;15.10;99.90;;;;;;5108519;27;20050;-69
2023/07/17 02:24:49;;;;;;;9.82;3.08;;;15.10;99.90;;;;;;5107872;27;20496;-66
2023/07/17 02:27:15;;;;;;;11.85;3.47;;;15.00;99.90;;;;;;5105890;27;20046;-68
2023/07/17 02:29:41;;;;;;;9.52;2.67;;;15.00;99.90;;;;;;5126212;27;20478;-71
2023/07/17 02:32:07;;;;;;;10.50;2.72;;;15.00;99.90;;;;;;5093272;27;20035;-68
2023/07/17 02:34:32;;;;;;;8.35;2.70;;;15.00;99.90;;;;;;5107704;27;20035;-72
2023/07/17 02:36:58;;;;;;;7.93;2.65;;;15.00;99.90;;;;;;5126507;27;20054;-68
2023/07/17 02:39:23;;;;;;;11.30;3.13;;;14.90;99.90;;;;;;5125947;27;20046;-68
2023/07/17 02:41:49;;;;;;;14.50;3.25;;;14.90;99.90;;;;;;5092952;28;20043;-65
2023/07/17 02:44:15;;;;;;;12.88;3.10;;;14.90;99.90;;;;;;5100422;27;20755;-69
2023/07/17 02:46:41;;;;;;;13.57;3.45;;;14.90;99.90;;;;;;5107996;27;20043;-67
2023/07/17 02:49:09;;;;;;;11.60;2.90;;;14.90;99.90;;;;;;5108010;27;20039;-68
2023/07/17 02:51:34;;;;;;;9.35;2.92;;;14.90;99.90;;;;;;5107698;27;20582;-65
2023/07/17 02:54:00;;;;;;;13.13;3.45;;;14.90;99.90;;;;;;5107550;27;20130;-67
2023/07/17 02:56:25;;;;;;;8.90;2.90;;;14.90;99.90;;;;;;5124591;27;20258;-67
2023/07/17 02:58:55;;;;;;;9.48;2.78;;;14.90;99.90;;;;;;5125149;27;20130;-69
2023/07/17 03:01:20;;;;;;;10.75;3.08;;;14.90;99.90;;;;;;5104281;28;20057;-66
2023/07/17 03:03:46;;;;;;;10.95;2.90;;;14.90;99.90;;;;;;5087057;28;20558;-66
2023/07/17 03:06:12;;;;;;;14.07;3.00;;;14.90;99.90;;;;;;5103903;28;20040;-66
2023/07/17 03:08:41;;;;;;;12.77;4.03;;;14.90;99.90;;;;;;5102896;28;20344;-68
2023/07/17 03:11:07;;;;;;;11.23;3.00;;;14.90;99.90;;;;;;5100946;28;20066;-68
2023/07/17 03:13:32;;;;;;;12.55;2.85;;;14.90;99.90;;;;;;5097282;28;20435;-68
2023/07/17 03:16:01;;;;;;;12.75;3.20;;;14.90;99.90;;;;;;5083630;28;20658;-65
2023/07/17 03:18:27;;;;;;;15.32;3.28;;;14.90;99.90;;;;;;5099064;28;20048;-65
2023/07/17 03:20:54;;;;;;;9.98;3.10;;;14.90;99.90;;;;;;5104081;28;20039;-64
2023/07/17 03:23:20;;;;;;;13.70;3.10;;;14.90;99.90;;;;;;5103453;28;20291;-67
2023/07/17 03:25:46;;;;;;;13.07;2.97;;;14.90;99.90;;;;;;5102066;28;20047;-66
2023/07/17 03:28:12;;;;;;;12.57;3.20;;;14.90;99.90;;;;;;5103172;28;20559;-67
2023/07/17 03:30:40;;;;;;;12.70;2.70;;;14.90;99.90;;;;;;5086604;28;20287;-66
2023/07/17 03:33:06;;;;;;;10.55;2.85;;;14.90;99.90;;;;;;5103133;28;20050;-66
2023/07/17 03:35:33;;;;;;;10.77;2.92;;;14.90;99.90;;;;;;5104636;28;20088;-63
2023/07/17 03:37:59;;;;;;;11.70;2.90;;;14.90;99.90;;;;;;5105045;28;20035;-66
2023/07/17 03:40:24;;;;;;;12.98;3.10;;;14.90;99.90;;;;;;5102597;28;20089;-65
2023/07/17 03:42:50;;;;;;;13.57;3.65;;;14.90;99.90;;;;;;5102099;28;20047;-67
2023/07/17 03:45:16;;;;;;;14.65;3.30;;;14.90;99.90;;;;;;5105250;28;20044;-66
2023/07/17 03:47:41;;;;;;;12.82;3.30;;;14.90;99.90;;;;;;5104480;28;20042;-64
2023/07/17 03:50:07;;;;;;;11.60;3.17;;;14.80;99.90;;;;;;5104703;28;20134;-66
2023/07/17 03:52:36;;;;;;;13.80;3.42;;;14.80;99.90;;;;;;5103773;28;20069;-65
2023/07/17 03:55:01;;;;;;;10.07;3.00;;;14.80;99.90;;;;;;5118600;27;20456;-67
2023/07/17 03:57:27;;;;;;;13.63;3.80;;;14.80;99.90;;;;;;5101398;28;20043;-67
2023/07/17 03:59:54;;;;;;;11.82;2.97;;;14.80;99.90;;;;;;5102461;28;20401;-66
2023/07/17 04:02:20;;;;;;;11.63;3.03;;;14.80;99.90;;;;;;5103515;28;20079;-67
2023/07/17 04:04:50;;;;;;;11.30;2.97;;;14.80;99.90;;;;;;5103011;28;20043;-66
2023/07/17 04:07:16;;;;;;;11.63;3.13;;;14.80;99.90;;;;;;5102757;28;20051;-66
2023/07/17 04:09:41;;;;;;;12.23;3.20;;;14.80;99.90;;;;;;5103041;28;20047;-66
2023/07/17 04:12:07;;;;;;;11.32;3.35;;;14.80;99.90;;;;;;5101226;28;20467;-65
2023/07/17 04:14:33;;;;;;;12.75;3.28;;;14.80;99.90;;;;;;5102715;28;20120;-66
2023/07/17 04:17:00;;;;;;;13.88;3.53;;;14.90;99.90;;;;;;5085793;28;20179;-65
2023/07/17 04:19:29;;;;;;;12.30;3.05;;;15.00;99.90;;;;;;5104248;28;20082;-67
2023/07/17 04:21:55;;;;;;;12.25;3.60;;;15.00;99.90;;;;;;5085254;28;20620;-66
2023/07/17 04:24:24;;;;;;;11.68;3.50;;;15.10;99.90;;;;;;5103747;28;20525;-66
2023/07/17 04:26:52;;;;;;;12.48;3.15;;;15.20;99.90;;;;;;5094605;28;20047;-64
2023/07/17 04:29:20;;;;;;;13.73;3.25;;;15.40;99.90;;;;;;5102128;28;20155;-64
2023/07/17 04:31:45;;;;;;;11.27;3.15;;;15.60;99.90;;;;;;5102947;28;20058;-65
2023/07/17 04:34:11;;;;;;;11.63;3.00;;;15.70;99.90;;;;;;5104910;28;20039;-65
2023/07/17 04:36:37;;;;;;;12.70;3.30;;;15.80;99.90;;;;;;5085279;28;20036;-66
2023/07/17 04:39:04;;;;;;;12.52;3.03;;;16.00;99.90;;;;;;5104471;28;20088;-66
2023/07/17 04:41:30;;;;;;;15.18;3.20;;;16.20;99.90;;;;;;5101411;28;20055;-66
2023/07/17 04:43:56;;;;;;;12.75;3.30;;;16.30;99.90;;;;;;5101988;28;20490;-70
2023/07/17 04:46:21;;;;;;;13.40;3.40;;;16.40;99.90;;;;;;5085754;28;20035;-69
2023/07/17 04:48:47;;;;;;;11.30;2.70;;;16.60;99.90;;;;;;5084979;28;20045;-66
2023/07/17 04:51:12;;;;;;;10.13;2.75;;;16.70;99.90;;;;;;5102950;28;20036;-68
2023/07/17 04:53:38;;;;;;;14.63;3.30;;;16.80;99.90;;;;;;5102783;28;20474;-66
2023/07/17 04:56:04;;;;;;;13.27;3.78;;;16.90;99.90;;;;;;5100273;28;20127;-66
2023/07/17 04:58:32;;;;;;;12.00;3.42;;;17.10;99.90;;;;;;5101580;28;20100;-65
2023/07/17 05:01:01;;;;;;;11.43;2.72;;;17.20;99.90;;;;;;5107847;28;20123;-61
2023/07/17 05:03:27;;;;;;;11.95;3.75;;;17.40;99.90;;;;;;5124408;28;20126;-68
2023/07/17 05:05:53;;;;;;;15.48;3.22;;;17.70;99.90;;;;;;5106138;28;20464;-65
2023/07/17 05:08:19;;;;;;;15.35;3.63;;;18.20;99.90;;;;;;5100411;28;20051;-62
2023/07/17 05:11:02;;;;;;;11.43;3.20;;;18.60;99.90;;;;;;5105553;28;20062;-66
2023/07/17 05:13:28;;;;;;;13.45;3.15;;;18.60;99.90;;;;;;5105458;28;20038;-66
2023/07/17 05:15:54;;;;;;;14.38;3.05;;;18.40;99.90;;;;;;5106499;28;20128;-66
2023/07/17 05:18:20;;;;;;;12.05;3.10;;;18.60;99.90;;;;;;5068750;28;20504;-64
2023/07/17 05:20:47;;;;;;;15.38;3.42;;;19.10;99.90;;;;;;5110145;28;20039;-66
2023/07/17 05:23:13;;;;;;;12.15;3.22;;;19.30;99.90;;;;;;5122915;28;20338;-66
2023/07/17 05:25:38;;;;;;;15.25;3.17;;;19.20;99.90;;;;;;5101077;28;20058;-65
2023/07/17 05:28:05;;;;;;;13.30;3.45;;;19.00;99.90;;;;;;5114822;28;20413;-65
2023/07/17 05:30:34;;;;;;;10.80;3.20;;;18.80;99.90;;;;;;5097635;28;20031;-63
2023/07/17 05:33:00;;;;;;;11.75;3.70;;;18.70;99.90;;;;;;5102494;28;20713;-64
2023/07/17 05:35:26;;;;;;;11.15;2.88;;;18.60;99.90;;;;;;5113120;27;20042;-64
2023/07/17 05:37:53;;;;;;;17.90;3.42;;;18.50;99.90;;;;;;5109488;27;20031;-63
2023/07/17 05:40:19;;;;;;;10.65;2.97;;;18.30;99.90;;;;;;5109497;27;20635;-68
2023/07/17 05:42:44;;;;;;;11.90;3.20;;;18.20;99.90;;;;;;5092575;27;20042;-67
2023/07/17 05:45:10;;;;;;;15.88;4.18;;;18.00;99.90;;;;;;5097565;27;20039;-68
2023/07/17 05:47:41;;;;;;;15.48;3.53;;;17.70;99.90;;;;;;5098195;27;20047;-70
2023/07/17 05:50:07;;;;;;;14.38;3.47;;;17.40;99.90;;;;;;5114896;27;20219;-67
2023/07/17 05:52:33;;;;;;;10.52;3.45;;;17.30;99.90;;;;;;5113736;27;20053;-65
2023/07/17 05:54:58;;;;;;;18.10;4.07;;;17.10;99.90;;;;;;5093548;27;20043;-66
2023/07/17 05:57:24;;;;;;;14.88;3.88;;;17.00;99.90;;;;;;5094525;27;20448;-66
2023/07/17 05:59:50;;;;;;;15.20;3.80;;;16.90;99.90;;;;;;5091529;27;20050;-64
2023/07/17 06:02:15;;;;;;;12.43;3.65;;;17.00;99.90;;;;;;5107058;27;20086;-68
2023/07/17 06:04:41;;;;;;;12.80;4.03;;;17.20;99.90;;;;;;5086439;27;20489;-70
2023/07/17 06:07:07;;;;;;;11.57;3.53;;;17.40;99.90;;;;;;5063916;27;20035;-69
2023/07/17 06:09:34;;;;;;;14.90;3.90;;;17.60;99.90;;;;;;5099980;27;20050;-65
2023/07/17 06:12:01;;;;;;;13.48;3.88;;;17.70;99.90;;;;;;5085782;27;20047;-68
2023/07/17 06:14:26;;;;;;;14.25;4.45;;;17.60;99.90;;;;;;5071052;27;20436;-69
2023/07/17 06:16:52;;;;;;;13.63;4.22;;;17.70;99.90;;;;;;5085679;27;20054;-66
2023/07/17 06:19:18;;;;;;;13.48;3.83;;;17.70;99.90;;;;;;5085923;27;20047;-68
2023/07/17 06:21:44;;;;;;;11.15;3.80;;;17.80;99.90;;;;;;5083449;27;20042;-68
2023/07/17 06:24:10;;;;;;;13.32;4.20;;;17.90;99.90;;;;;;5087542;27;20047;-66
2023/07/17 06:26:36;;;;;;;16.48;4.40;;;17.90;99.90;;;;;;5081786;27;20038;-65
2023/07/17 06:29:03;;;;;;;12.27;3.90;;;17.80;99.90;;;;;;5084593;27;20047;-63
2023/07/17 06:31:29;;;;;;;13.90;4.28;;;17.80;99.90;;;;;;5087245;27;20410;-65
2023/07/17 06:33:55;;;;;;;17.23;4.43;;;17.80;99.90;;;;;;5086387;27;20417;-67
2023/07/17 06:36:20;;;;;;;15.45;3.75;;;17.80;99.90;;;;;;5083461;27;20801;-65
2023/07/17 06:38:46;;;;;;;12.65;4.28;;;17.90;99.90;;;;;;5095960;27;20042;-67
2023/07/17 06:41:13;;;;;;;14.65;3.97;;;18.00;99.90;;;;;;5087473;27;20046;-65
2023/07/17 06:43:39;;;;;;;13.68;4.15;;;17.90;99.90;;;;;;5106264;27;20051;-67
2023/07/17 06:46:05;;;;;;;12.60;4.38;;;17.90;99.90;;;;;;5101074;27;20181;-63
2023/07/17 06:48:30;;;;;;;12.23;3.95;;;18.00;99.90;;;;;;5105875;27;20504;-67
2023/07/17 06:50:56;;;;;;;13.13;3.85;;;17.90;99.90;;;;;;5090620;27;20545;-66
2023/07/17 06:53:21;;;;;;;17.23;5.32;;;17.90;99.90;;;;;;5093305;28;20523;-68
2023/07/17 06:55:55;;;;;;;13.90;4.65;;;17.80;99.90;;;;;;5092632;27;20074;-67
2023/07/17 06:58:21;;;;;;;18.33;5.20;;;17.90;99.90;;;;;;5110716;27;20035;-69
2023/07/17 07:00:46;;;;;;;15.65;4.97;;;17.90;99.90;;;;;;5087788;27;20413;-66
2023/07/17 07:03:12;;;;;;;13.25;4.70;;;17.90;99.90;;;;;;5068291;27;20043;-73
2023/07/17 07:05:37;;;;;;;15.35;4.30;;;18.00;99.90;;;;;;5066835;27;20050;-67
2023/07/17 07:08:03;;;;;;;13.55;4.97;;;18.10;99.90;;;;;;5085509;27;20047;-67
2023/07/17 07:10:29;;;;;;;13.98;5.05;;;18.20;99.90;;;;;;5083187;27;20070;-66
2023/07/17 07:12:54;;;;;;;16.13;4.88;;;18.10;99.90;;;;;;5067817;27;20397;-66
2023/07/17 07:15:20;;;;;;;18.33;5.85;;;18.20;99.90;;;;;;5103625;27;20527;-64
2023/07/17 07:17:46;;;;;;;16.70;5.32;;;18.20;99.90;;;;;;5084227;27;20130;-63
2023/07/17 07:20:12;;;;;;;15.93;5.03;;;18.20;99.90;;;;;;5086210;27;20051;-66
2023/07/17 07:22:37;;;;;;;15.07;5.30;;;18.20;99.90;;;;;;5076289;27;20043;-69
2023/07/17 07:25:03;;;;;;;21.95;5.53;;;18.10;99.90;;;;;;5103971;27;20123;-65
2023/07/17 07:27:31;;;;;;;13.65;4.90;;;18.20;99.90;;;;;;5066211;27;20050;-65
2023/07/17 07:29:56;;;;;;;16.90;5.82;;;18.20;99.90;;;;;;5085894;27;20606;-64
2023/07/17 07:32:22;;;;;;;17.27;5.50;;;18.10;99.90;;;;;;5105919;27;20054;-67
2023/07/17 07:34:47;;;;;;;16.70;5.07;;;18.20;99.90;;;;;;5085005;27;20182;-66
2023/07/17 07:37:13;;;;;;;15.30;4.63;;;18.20;99.90;;;;;;5082801;27;20498;-66
2023/07/17 07:39:38;;;;;;;15.30;4.75;;;18.30;99.90;;;;;;5086779;27;20545;-66
2023/07/17 07:42:05;;;;;;;20.08;5.38;;;18.30;99.90;;;;;;5084151;27;20168;-64
2023/07/17 07:44:30;;;;;;;15.30;5.10;;;18.30;99.90;;;;;;5068013;27;20158;-65
2023/07/17 07:46:56;;;;;;;18.63;4.88;;;18.20;99.90;;;;;;5084634;27;20088;-66
2023/07/17 07:49:21;;;;;;;18.00;5.10;;;18.20;99.90;;;;;;5067943;28;20051;-67
2023/07/17 07:51:47;;;;;;;12.82;5.50;;;18.40;99.90;;;;;;5065361;27;20040;-69
2023/07/17 07:54:12;;;;;;;15.13;5.45;;;18.40;99.90;;;;;;5084154;27;21202;-69
2023/07/17 07:56:38;;;;;;;19.65;5.18;;;18.40;99.90;;;;;;5096074;27;20054;-64
2023/07/17 07:59:04;;;;;;;16.63;5.00;;;18.30;99.90;;;;;;5084238;27;20070;-67
2023/07/17 08:01:29;;;;;;;16.75;5.35;;;18.20;99.90;;;;;;5085154;28;20109;-67
2023/07/17 08:03:55;;;;;;;12.02;3.38;;;18.20;99.90;;;;;;5087260;28;20494;-69
2023/07/17 08:06:20;;;;;;;9.45;3.47;;;18.10;99.90;;;;;;5081091;28;20035;-66
2023/07/17 08:08:46;;;;;;;14.40;4.43;;;17.90;99.90;;;;;;5088152;27;20056;-67
2023/07/17 08:11:11;;;;;;;11.38;3.38;;;17.50;99.90;;;;;;5084623;28;20217;-69
2023/07/17 08:13:37;;;;;;;14.45;4.10;;;17.20;99.90;;;;;;5085309;28;20046;-68
2023/07/17 08:16:03;;;;;;;13.45;3.97;;;16.80;99.90;;;;;;5083921;28;20043;-66
2023/07/17 08:18:28;;;;;;;11.23;4.82;;;16.50;99.90;;;;;;5087204;28;20057;-65
2023/07/17 08:20:54;;;;;;;15.23;5.30;;;16.30;99.90;;;;;;5081360;28;20043;-64
2023/07/17 08:23:27;;;;;;;13.60;5.38;;;16.10;99.90;;;;;;5104454;28;20096;-67
2023/07/17 08:25:53;;;;;;;16.00;6.00;;;16.00;99.90;;;;;;5083426;28;20055;-66
2023/07/17 08:28:18;;;;;;;19.63;6.00;;;16.10;99.90;;;;;;5083353;28;21380;-67
2023/07/17 08:30:44;;;;;;;19.92;7.57;;;16.20;99.90;;;;;;5083231;28;20051;-65
2023/07/17 08:33:11;;;;;;;17.85;7.07;;;16.40;99.90;;;;;;5103138;28;20042;-72
2023/07/17 08:35:37;;;;;;;17.05;5.80;;;16.60;99.90;;;;;;5091006;28;20071;-66
2023/07/17 08:38:03;;;;;;;19.35;7.15;;;16.80;99.90;;;;;;5085784;28;20182;-68
2023/07/17 08:40:29;;;;;;;19.35;6.63;;;16.90;99.90;;;;;;5099744;28;20436;-67
2023/07/17 08:42:58;;;;;;;22.05;6.70;;;16.90;99.90;;;;;;5089944;28;20043;-67
2023/07/17 08:45:25;;;;;;;16.95;6.05;;;17.10;99.90;;;;;;5071278;28;20043;-65
2023/07/17 08:47:53;;;;;;;20.60;6.38;;;17.20;99.90;;;;;;5089527;28;20130;-67
2023/07/17 08:50:19;;;;;;;16.80;5.60;;;17.30;99.90;;;;;;5097042;28;20548;-70
2023/07/17 08:52:49;;;;;;;18.00;5.18;;;17.40;99.90;;;;;;5074691;28;20039;-70
2023/07/17 08:55:14;;;;;;;15.02;5.07;;;17.40;99.90;;;;;;5088044;28;20031;-67
2023/07/17 08:57:41;;;;;;;13.43;4.85;;;17.30;99.90;;;;;;5116624;28;20039;-67
2023/07/17 09:00:07;;;;;;;20.83;5.40;;;17.30;99.90;;;;;;5077900;28;20045;-67
2023/07/17 09:02:33;;;;;;;16.23;4.63;;;17.20;99.90;;;;;;5112359;28;20047;-69
2023/07/17 09:04:59;;;;;;;12.07;3.92;;;17.10;99.90;;;;;;5095798;28;20115;-71
2023/07/17 09:07:24;;;;;;;10.13;3.80;;;17.10;99.90;;;;;;5111813;27;20046;-67
2023/07/17 09:10:14;;;;;;;12.38;4.10;;;17.10;99.90;;;;;;5099961;27;20043;-67
2023/07/17 09:12:48;;;;;;;17.55;4.10;;;17.20;99.90;;;;;;5103908;27;20036;-66
2023/07/17 09:15:17;;;;;;;12.75;4.10;;;17.30;99.90;;;;;;5114693;27;20608;-67
2023/07/17 09:17:44;;;;;;;13.73;4.07;;;17.30;99.90;;;;;;5099949;27;20185;-64
2023/07/17 09:20:11;;;;;;;11.35;3.88;;;17.30;99.90;;;;;;5097589;27;20224;-68
2023/07/17 09:22:38;;;;;;;11.77;3.47;;;17.20;99.90;;;;;;5109362;27;20039;-67
2023/07/17 09:25:07;;;;;;;12.73;3.65;;;17.20;99.90;;;;;;5095696;27;20055;-67
2023/07/17 09:27:47;;;;;;;10.18;3.22;;;17.20;99.90;;;;;;5124951;27;20470;-67
2023/07/17 09:30:15;;;;;;;12.07;3.80;;;17.30;99.90;;;;;;5103693;27;20122;-66
2023/07/17 09:32:41;;;;;;;10.00;3.50;;;17.50;99.90;;;;;;5082415;27;20040;-67
2023/07/17 09:35:09;;;;;;;12.85;3.55;;;17.70;99.90;;;;;;5118433;27;20438;-71
2023/07/17 09:37:35;;;;;;;10.02;3.45;;;17.90;99.90;;;;;;5098993;27;20039;-68
2023/07/17 09:40:07;;;;;;;12.15;3.40;;;18.10;99.90;;;;;;5083218;27;20080;-70
2023/07/17 09:42:33;;;;;;;11.43;3.25;;;18.30;99.90;;;;;;5108392;27;20054;-67
2023/07/17 09:45:00;;;;;;;12.00;3.33;;;18.50;99.90;;;;;;5108445;27;20179;-65
2023/07/17 09:47:26;;;;;;;10.38;3.00;;;18.70;99.90;;;;;;5109728;27;20043;-62
2023/07/17 09:49:54;;;;;;;9.93;3.05;;;18.80;99.90;;;;;;5118081;27;20043;-67
2023/07/17 09:52:20;;;;;;;7.22;2.55;;;19.20;99.90;;;;;;5098307;27;20568;-64
2023/07/17 09:54:49;;;;;;;10.68;2.95;;;19.30;99.90;;;;;;5115369;27;20088;-70
2023/07/17 09:57:25;;;;;;;9.32;2.80;;;19.40;99.90;;;;;;5116055;27;20054;-69
2023/07/17 09:59:54;;;;;;;10.82;2.65;;;19.50;99.80;;;;;;5106042;27;20586;-68
2023/07/17 10:02:23;;;;;;;14.13;3.13;;;19.50;99.90;;;;;;5098863;27;20047;-67
2023/07/17 10:04:55;;;;;;;8.43;2.72;;;19.50;99.90;;;;;;5094924;28;20251;-66
2023/07/17 10:07:21;;;;;;;8.68;3.22;;;19.30;99.90;;;;;;5116345;27;20046;-68
2023/07/17 10:09:50;;;;;;;11.63;3.20;;;19.20;99.90;;;;;;5097229;27;20036;-67
2023/07/17 10:12:19;;;;;;;10.77;3.20;;;19.00;99.90;;;;;;5092981;27;20038;-66
2023/07/17 10:14:47;;;;;;;11.30;3.38;;;19.00;99.90;;;;;;5086057;27;20489;-65
2023/07/17 10:17:30;;;;;;;8.82;2.90;;;19.00;99.90;;;;;;5108803;27;20042;-68
2023/07/17 10:19:58;;;;;;;9.32;3.17;;;19.10;99.90;;;;;;5106791;27;21075;-66
2023/07/17 10:22:31;;;;;;;9.85;3.00;;;19.20;99.90;;;;;;5121982;27;20043;-68
2023/07/17 10:24:57;;;;;;;9.77;2.83;;;19.30;99.20;;;;;;5091197;27;20491;-67
2023/07/17 10:27:40;;;;;;;12.52;2.88;;;19.30;99.10;;;;;;5086525;28;20048;-65
2023/07/17 10:30:23;;;;;;;11.25;2.75;;;19.30;98.80;;;;;;5104821;27;20039;-67
2023/07/17 10:33:03;;;;;;;13.07;2.72;;;19.40;98.30;;;;;;5108517;27;20130;-65
2023/07/17 10:35:43;;;;;;;9.25;2.75;;;19.50;98.60;;;;;;5089820;27;20042;-67
2023/07/17 10:38:09;;;;;;;8.30;2.30;;;19.60;98.10;;;;;;5091551;27;20046;-65
2023/07/17 10:40:35;;;;;;;8.90;2.33;;;19.70;98.20;;;;;;5098228;27;20062;-65
2023/07/17 10:43:16;;;;;;;5.85;2.60;;;19.80;97.80;;;;;;5098018;27;20549;-65
2023/07/17 10:45:42;;;;;;;9.95;2.63;;;19.90;98.00;;;;;;5103418;27;20046;-67
2023/07/17 10:48:08;;;;;;;7.70;2.80;;;19.90;98.00;;;;;;5088027;28;20518;-67
2023/07/17 10:50:34;;;;;;;11.05;2.83;;;20.10;97.90;;;;;;5098133;27;20107;-69
2023/07/17 10:53:09;;;;;;;10.23;2.95;;;20.20;97.90;;;;;;5126743;27;20035;-69
2023/07/17 10:55:35;;;;;;;8.63;3.00;;;20.30;97.20;;;;;;5087947;27;20050;-69
2023/07/17 10:58:01;;;;;;;7.38;2.45;;;20.30;97.50;;;;;;5107661;27;20027;-68
2023/07/17 11:00:27;;;;;;;8.15;2.78;;;20.20;97.50;;;;;;5126587;27;20046;-69
2023/07/17 11:02:56;;;;;;;7.60;2.55;;;20.20;97.60;;;;;;5090898;27;20428;-64
2023/07/17 11:05:22;;;;;;;10.80;2.58;;;20.20;96.80;;;;;;5089882;27;20047;-66
2023/07/17 11:07:48;;;;;;;8.48;2.70;;;20.10;96.40;;;;;;5107045;27;20047;-68
2023/07/17 11:10:14;;;;;;;7.55;2.30;;;20.10;95.30;;;;;;5106889;27;20035;-68
2023/07/17 11:12:40;;;;;;;10.23;2.35;;;20.10;95.40;;;;;;5106114;27;20061;-65
2023/07/17 11:15:16;;;;;;;7.38;2.50;;;20.20;95.00;;;;;;5125277;27;20066;-63
2023/07/17 11:17:42;;;;;;;8.40;2.50;;;20.40;94.90;;;;;;5090789;27;20042;-69
2023/07/17 11:20:09;;;;;;;8.90;2.38;;;20.40;94.70;;;;;;5125770;27;20209;-68
2023/07/17 11:22:36;;;;;;;6.28;2.35;;;20.60;94.90;;;;;;5106044;27;20062;-68
2023/07/17 11:25:03;;;;;;;9.60;2.83;;;20.70;95.10;;;;;;5090143;27;20042;-65
2023/07/17 11:27:29;;;;;;;7.43;2.50;;;20.80;95.00;;;;;;5105783;27;20201;-66
2023/07/17 11:29:54;;;;;;;6.53;2.22;;;20.90;94.80;;;;;;5125053;27;20043;-66
2023/07/17 11:32:21;;;;;;;9.48;2.60;;;20.80;94.90;;;;;;5106673;27;20249;-69
2023/07/17 11:34:54;;;;;;;9.10;2.60;;;20.60;94.70;;;;;;5089776;27;20115;-65
2023/07/17 11:37:38;;;;;;;9.07;2.80;;;20.50;95.10;;;;;;5107269;27;20062;-66
2023/07/17 11:40:07;;;;;;;8.55;2.70;;;20.40;95.40;;;;;;5105282;28;20696;-68
2023/07/17 11:42:55;;;;;;;7.15;2.63;;;20.30;95.90;;;;;;5122529;27;20058;-67
2023/07/17 11:45:25;;;;;;;8.00;2.67;;;20.30;96.10;;;;;;5105889;27;20049;-68
2023/07/17 11:47:56;;;;;;;10.07;2.88;;;20.40;96.50;;;;;;5089775;27;20068;-65
2023/07/17 11:50:26;;;;;;;9.48;3.15;;;20.40;96.30;;;;;;5125201;27;20039;-65
2023/07/17 11:53:11;;;;;;;10.13;2.80;;;20.40;96.30;;;;;;5107038;27;20035;-65
2023/07/17 11:55:37;;;;;;;;;;;20.20;96.90;;;;;;5105810;27;20049;-68
2023/07/17 11:58:35;;;;;;;10.82;3.50;;;20.00;97.70;;;;;;5124910;27;20346;-66
2023/07/17 12:01:01;;;;;;;11.98;3.45;;;19.90;97.80;;;;;;5074658;28;20588;-68
2023/07/17 12:03:27;;;;;;;8.63;2.58;;;19.80;97.60;;;;;;5119360;27;20039;-67
2023/07/17 12:05:53;;;;;;;8.95;2.70;;;19.90;97.90;;;;;;5123570;27;20098;-65
2023/07/17 12:08:19;;;;;;;11.00;2.70;;;20.10;97.30;;;;;;5101840;27;20582;-65
2023/07/17 12:10:45;;;;;;;9.93;3.00;;;20.30;97.20;;;;;;5105377;27;20031;-68
2023/07/17 12:13:11;;;;;;;9.38;2.83;;;20.60;97.10;;;;;;5105040;27;20042;-69
2023/07/17 12:15:37;;;;;;;8.93;2.50;;;20.80;96.80;;;;;;5125173;27;20533;-66
2023/07/17 12:18:03;;;;;;;7.28;2.10;;;20.90;96.40;;;;;;5106672;27;20039;-65
2023/07/17 12:20:32;;;;;;;8.55;2.38;;;21.00;96.00;;;;;;5106377;28;20150;-65
2023/07/17 12:22:57;;;;;;;10.68;2.60;;;20.90;95.80;;;;;;5124014;27;20039;-65
2023/07/17 12:25:23;;;;;;;6.95;2.10;;;20.90;96.00;;;;;;5123825;28;20047;-65
2023/07/17 12:27:50;;;;;;;4.95;1.60;;;20.90;95.60;;;;;;5105670;28;20524;-65
2023/07/17 12:30:16;;;;;;;7.55;1.75;;;20.90;94.50;;;;;;5105167;28;20619;-65
2023/07/17 12:32:44;;;;;;;5.78;1.80;;;21.00;94.40;;;;;;5106713;28;20074;-64
2023/07/17 12:35:10;;;;;;;7.32;1.70;;;21.00;93.50;;;;;;5105019;28;20084;-66
2023/07/17 12:37:35;;;;;;;9.90;2.28;;;21.00;92.90;;;;;;5106647;28;20478;-64